sensor_id;sensor_type;location;lat;lon;timestamp;pressure;altitude;pressure_sealevel;temperature;humidity
55410;BME280;41279;43.546;16.426;2023-02-23T00:00:29;52954.91;;;-146.77;82.07
55410;BME280;41279;43.546;16.426;2023-02-23T00:02:58;52924.88;;;-146.77;78.83
55410;BME280;41279;43.546;16.426;2023-02-23T00:05:31;52942.88;;;-146.77;78.08
55410;BME280;41279;43.546;16.426;2023-02-23T00:07:59;52898.84;;;-146.77;79.36
55410;BME280;41279;43.546;16.426;2023-02-23T00:10:26;52924.88;;;-146.77;79.62
55410;BME280;41279;43.546;16.426;2023-02-23T00:12:58;52914.84;;;-146.77;77.40
55410;BME280;41279;43.546;16.426;2023-02-23T00:15:27;52894.84;;;-146.77;75.55
55410;BME280;41279;43.546;16.426;2023-02-23T00:17:55;52916.84;;;-146.77;77.11
55410;BME280;41279;43.546;16.426;2023-02-23T00:20:22;52922.88;;;-146.77;75.07
55410;BME280;41279;43.546;16.426;2023-02-23T00:22:55;52842.78;;;-146.77;75.30
55410;BME280;41279;43.546;16.426;2023-02-23T00:25:23;52936.88;;;-146.77;74.71
55410;BME280;41279;43.546;16.426;2023-02-23T00:27:50;52894.84;;;-146.77;75.18
55410;BME280;41279;43.546;16.426;2023-02-23T00:30:17;52858.78;;;-146.77;74.93
55410;BME280;41279;43.546;16.426;2023-02-23T00:32:44;52870.81;;;-146.77;80.43
55410;BME280;41279;43.546;16.426;2023-02-23T00:35:10;52878.81;;;-146.77;75.17
55410;BME280;41279;43.546;16.426;2023-02-23T00:37:43;52912.84;;;-146.77;74.60
55410;BME280;41279;43.546;16.426;2023-02-23T00:40:09;52882.81;;;-146.77;73.71
55410;BME280;41279;43.546;16.426;2023-02-23T00:42:39;52868.81;;;-146.77;72.97
55410;BME280;41279;43.546;16.426;2023-02-23T00:45:05;52882.81;;;-146.77;72.34
55410;BME280;41279;43.546;16.426;2023-02-23T00:47:35;52884.81;;;-146.77;71.62
55410;BME280;41279;43.546;16.426;2023-02-23T00:50:01;52854.78;;;-146.77;72.95
55410;BME280;41279;43.546;16.426;2023-02-23T00:52:26;52854.78;;;-146.77;72.53
55410;BME280;41279;43.546;16.426;2023-02-23T00:54:53;52864.81;;;-146.77;71.30
55410;BME280;41279;43.546;16.426;2023-02-23T00:57:20;52888.84;;;-146.77;69.61
55410;BME280;41279;43.546;16.426;2023-02-23T00:59:46;52874.81;;;-146.77;69.51
55410;BME280;41279;43.546;16.426;2023-02-23T01:02:14;52840.78;;;-146.77;74.19
55410;BME280;41279;43.546;16.426;2023-02-23T01:04:40;52878.81;;;-146.77;74.71
55410;BME280;41279;43.546;16.426;2023-02-23T01:07:05;52842.78;;;-146.77;74.39
55410;BME280;41279;43.546;16.426;2023-02-23T01:09:32;52868.81;;;-146.77;72.94
55410;BME280;41279;43.546;16.426;2023-02-23T01:11:57;52868.81;;;-146.77;72.69
55410;BME280;41279;43.546;16.426;2023-02-23T01:14:26;52842.78;;;-146.77;74.24
55410;BME280;41279;43.546;16.426;2023-02-23T01:16:52;52854.78;;;-146.77;74.57
55410;BME280;41279;43.546;16.426;2023-02-23T01:19:17;52836.78;;;-146.77;75.67
55410;BME280;41279;43.546;16.426;2023-02-23T01:21:43;52856.78;;;-146.77;73.24
55410;BME280;41279;43.546;16.426;2023-02-23T01:24:09;52848.78;;;-146.77;72.58
55410;BME280;41279;43.546;16.426;2023-02-23T01:26:38;52820.75;;;-146.77;72.66
55410;BME280;41279;43.546;16.426;2023-02-23T01:29:06;52820.75;;;-146.77;77.41
55410;BME280;41279;43.546;16.426;2023-02-23T01:31:33;52830.75;;;-146.77;79.67
55410;BME280;41279;43.546;16.426;2023-02-23T01:34:00;52842.78;;;-146.77;80.44
55410;BME280;41279;43.546;16.426;2023-02-23T01:36:27;52874.81;;;-146.77;75.86
55410;BME280;41279;43.546;16.426;2023-02-23T01:38:53;52870.81;;;-146.77;72.24
55410;BME280;41279;43.546;16.426;2023-02-23T01:41:25;52844.78;;;-146.77;71.70
55410;BME280;41279;43.546;16.426;2023-02-23T01:44:02;52840.78;;;-146.77;71.11
55410;BME280;41279;43.546;16.426;2023-02-23T01:46:30;52856.78;;;-146.77;70.00
55410;BME280;41279;43.546;16.426;2023-02-23T01:48:56;52862.81;;;-146.77;70.07
55410;BME280;41279;43.546;16.426;2023-02-23T01:51:25;52846.78;;;-146.77;70.39
55410;BME280;41279;43.546;16.426;2023-02-23T01:54:17;52880.81;;;-146.77;73.68
55410;BME280;41279;43.546;16.426;2023-02-23T01:56:46;52888.84;;;-146.77;74.98
55410;BME280;41279;43.546;16.426;2023-02-23T01:59:24;52860.78;;;-146.77;75.80
55410;BME280;41279;43.546;16.426;2023-02-23T02:01:52;52876.81;;;-146.77;75.81
55410;BME280;41279;43.546;16.426;2023-02-23T02:04:19;52874.81;;;-146.77;73.17
55410;BME280;41279;43.546;16.426;2023-02-23T02:06:48;52866.81;;;-146.77;73.60
55410;BME280;41279;43.546;16.426;2023-02-23T02:09:19;52878.81;;;-146.77;74.78
55410;BME280;41279;43.546;16.426;2023-02-23T02:11:50;52850.78;;;-146.77;73.25
55410;BME280;41279;43.546;16.426;2023-02-23T02:14:23;52830.75;;;-146.77;74.12
55410;BME280;41279;43.546;16.426;2023-02-23T02:20:13;52878.81;;;-146.77;70.99
55410;BME280;41279;43.546;16.426;2023-02-23T02:39:10;52888.84;;;-146.77;75.21
55410;BME280;41279;43.546;16.426;2023-02-23T02:42:18;52876.81;;;-146.77;72.09
55410;BME280;41279;43.546;16.426;2023-02-23T02:44:57;52844.78;;;-146.77;72.55
55410;BME280;41279;43.546;16.426;2023-02-23T02:50:21;52894.84;;;-146.77;71.14
55410;BME280;41279;43.546;16.426;2023-02-23T02:53:00;52886.81;;;-146.77;71.08
55410;BME280;41279;43.546;16.426;2023-02-23T02:55:29;52884.81;;;-146.77;71.36
55410;BME280;41279;43.546;16.426;2023-02-23T02:58:04;52898.84;;;-146.77;71.36
55410;BME280;41279;43.546;16.426;2023-02-23T03:00:50;52896.84;;;-146.77;72.22
55410;BME280;41279;43.546;16.426;2023-02-23T03:03:41;52852.78;;;-146.77;72.44
55410;BME280;41279;43.546;16.426;2023-02-23T03:06:33;52862.81;;;-146.77;72.99
55410;BME280;41279;43.546;16.426;2023-02-23T03:09:52;52852.78;;;-146.77;74.97
55410;BME280;41279;43.546;16.426;2023-02-23T03:15:53;52794.72;;;-146.77;75.17
55410;BME280;41279;43.546;16.426;2023-02-23T03:28:24;52884.81;;;-146.77;81.06
55410;BME280;41279;43.546;16.426;2023-02-23T03:31:25;52872.81;;;-146.77;81.27
55410;BME280;41279;43.546;16.426;2023-02-23T03:37:05;52914.84;;;-146.77;79.53
55410;BME280;41279;43.546;16.426;2023-02-23T03:40:00;52906.84;;;-146.77;76.55
55410;BME280;41279;43.546;16.426;2023-02-23T03:42:49;52878.81;;;-146.77;76.41
55410;BME280;41279;43.546;16.426;2023-02-23T03:45:35;52910.84;;;-146.77;76.41
55410;BME280;41279;43.546;16.426;2023-02-23T03:48:20;52914.84;;;-146.77;76.00
55410;BME280;41279;43.546;16.426;2023-02-23T03:51:07;52922.88;;;-146.77;72.71
55410;BME280;41279;43.546;16.426;2023-02-23T03:56:47;52914.84;;;-146.77;73.59
55410;BME280;41279;43.546;16.426;2023-02-23T03:59:38;52916.84;;;-146.77;74.55
55410;BME280;41279;43.546;16.426;2023-02-23T04:02:23;52896.84;;;-146.77;74.66
55410;BME280;41279;43.546;16.426;2023-02-23T04:05:16;52886.81;;;-146.77;76.68
55410;BME280;41279;43.546;16.426;2023-02-23T04:08:02;52906.84;;;-146.77;74.03
55410;BME280;41279;43.546;16.426;2023-02-23T04:10:53;52896.84;;;-146.77;72.58
55410;BME280;41279;43.546;16.426;2023-02-23T04:13:42;52920.88;;;-146.77;71.95
55410;BME280;41279;43.546;16.426;2023-02-23T04:16:09;52884.81;;;-146.77;74.33
55410;BME280;41279;43.546;16.426;2023-02-23T04:18:37;52830.75;;;-146.77;75.90
55410;BME280;41279;43.546;16.426;2023-02-23T04:21:03;52906.84;;;-146.77;79.27
55410;BME280;41279;43.546;16.426;2023-02-23T04:23:30;52922.88;;;-146.77;78.32
55410;BME280;41279;43.546;16.426;2023-02-23T04:25:55;52926.88;;;-146.77;75.21
55410;BME280;41279;43.546;16.426;2023-02-23T04:28:23;52938.88;;;-146.77;74.17
55410;BME280;41279;43.546;16.426;2023-02-23T04:30:48;52930.88;;;-146.77;74.47
55410;BME280;41279;43.546;16.426;2023-02-23T04:33:16;52942.88;;;-146.77;74.24
55410;BME280;41279;43.546;16.426;2023-02-23T04:35:48;52922.88;;;-146.77;74.25
55410;BME280;41279;43.546;16.426;2023-02-23T04:38:15;52924.88;;;-146.77;75.64
55410;BME280;41279;43.546;16.426;2023-02-23T04:40:41;52922.88;;;-146.77;75.04
55410;BME280;41279;43.546;16.426;2023-02-23T04:43:08;52914.84;;;-146.77;75.81
55410;BME280;41279;43.546;16.426;2023-02-23T04:45:34;52904.84;;;-146.77;76.51
55410;BME280;41279;43.546;16.426;2023-02-23T04:48:00;52934.88;;;-146.77;79.54
55410;BME280;41279;43.546;16.426;2023-02-23T04:50:25;52956.91;;;-146.77;78.19
55410;BME280;41279;43.546;16.426;2023-02-23T04:52:51;52960.91;;;-146.77;77.33
55410;BME280;41279;43.546;16.426;2023-02-23T04:55:20;52994.94;;;-146.77;82.06
55410;BME280;41279;43.546;16.426;2023-02-23T04:57:45;52982.94;;;-146.77;79.70
55410;BME280;41279;43.546;16.426;2023-02-23T05:00:12;52966.91;;;-146.77;78.69
55410;BME280;41279;43.546;16.426;2023-02-23T05:02:37;52982.94;;;-146.77;77.26
55410;BME280;41279;43.546;16.426;2023-02-23T05:05:03;52966.91;;;-146.77;76.95
55410;BME280;41279;43.546;16.426;2023-02-23T05:07:35;52932.88;;;-146.77;82.17
55410;BME280;41279;43.546;16.426;2023-02-23T05:10:01;52972.94;;;-146.77;80.35
55410;BME280;41279;43.546;16.426;2023-02-23T05:12:26;52964.91;;;-146.77;78.34
55410;BME280;41279;43.546;16.426;2023-02-23T05:14:52;52966.91;;;-146.77;79.12
55410;BME280;41279;43.546;16.426;2023-02-23T05:17:17;52954.91;;;-146.77;78.88
55410;BME280;41279;43.546;16.426;2023-02-23T05:19:43;52966.91;;;-146.77;77.83
55410;BME280;41279;43.546;16.426;2023-02-23T05:22:08;52942.88;;;-146.77;76.28
55410;BME280;41279;43.546;16.426;2023-02-23T05:24:38;52932.88;;;-146.77;76.25
55410;BME280;41279;43.546;16.426;2023-02-23T05:27:03;52930.88;;;-146.77;76.03
55410;BME280;41279;43.546;16.426;2023-02-23T05:29:28;52910.84;;;-146.77;75.52
55410;BME280;41279;43.546;16.426;2023-02-23T05:31:54;52918.88;;;-146.77;76.00
55410;BME280;41279;43.546;16.426;2023-02-23T05:34:20;52918.88;;;-146.77;74.61
55410;BME280;41279;43.546;16.426;2023-02-23T05:36:45;52912.84;;;-146.77;76.89
55410;BME280;41279;43.546;16.426;2023-02-23T05:39:10;52978.94;;;-146.77;76.12
55410;BME280;41279;43.546;16.426;2023-02-23T05:41:36;52964.91;;;-146.77;75.89
55410;BME280;41279;43.546;16.426;2023-02-23T05:44:02;52976.94;;;-146.77;75.92
55410;BME280;41279;43.546;16.426;2023-02-23T05:46:27;52960.91;;;-146.77;75.66
55410;BME280;41279;43.546;16.426;2023-02-23T05:48:56;52956.91;;;-146.77;75.54
55410;BME280;41279;43.546;16.426;2023-02-23T05:51:23;52962.91;;;-146.77;74.80
55410;BME280;41279;43.546;16.426;2023-02-23T05:53:49;52958.91;;;-146.77;74.03
55410;BME280;41279;43.546;16.426;2023-02-23T05:56:15;52934.88;;;-146.77;73.36
55410;BME280;41279;43.546;16.426;2023-02-23T05:58:51;52856.78;;;-146.77;74.12
55410;BME280;41279;43.546;16.426;2023-02-23T06:01:17;52888.84;;;-146.77;75.61
55410;BME280;41279;43.546;16.426;2023-02-23T06:03:43;52918.88;;;-146.77;75.32
55410;BME280;41279;43.546;16.426;2023-02-23T06:06:09;52944.91;;;-146.77;75.52
55410;BME280;41279;43.546;16.426;2023-02-23T06:08:35;52912.84;;;-146.77;74.61
55410;BME280;41279;43.546;16.426;2023-02-23T06:11:00;52888.84;;;-146.77;74.18
55410;BME280;41279;43.546;16.426;2023-02-23T06:13:26;52942.88;;;-146.77;73.54
55410;BME280;41279;43.546;16.426;2023-02-23T06:15:52;52912.84;;;-146.77;73.33
55410;BME280;41279;43.546;16.426;2023-02-23T06:18:18;52886.81;;;-146.77;76.62
55410;BME280;41279;43.546;16.426;2023-02-23T06:20:44;52926.88;;;-146.77;76.11
55410;BME280;41279;43.546;16.426;2023-02-23T06:23:10;52922.88;;;-146.77;75.59
55410;BME280;41279;43.546;16.426;2023-02-23T06:25:36;52948.91;;;-146.77;75.84
55410;BME280;41279;43.546;16.426;2023-02-23T06:28:01;53045.00;;;-146.77;83.29
55410;BME280;41279;43.546;16.426;2023-02-23T06:30:27;53073.03;;;-146.77;89.43
55410;BME280;41279;43.546;16.426;2023-02-23T06:32:53;53010.97;;;-146.77;82.29
55410;BME280;41279;43.546;16.426;2023-02-23T06:35:19;52926.88;;;-146.77;76.81
55410;BME280;41279;43.546;16.426;2023-02-23T06:37:44;52886.81;;;-146.77;80.79
55410;BME280;41279;43.546;16.426;2023-02-23T06:40:10;52914.84;;;-146.77;78.83
55410;BME280;41279;43.546;16.426;2023-02-23T06:42:35;52878.81;;;-146.77;76.11
55410;BME280;41279;43.546;16.426;2023-02-23T06:45:02;52784.72;;;-146.77;73.00
55410;BME280;41279;43.546;16.426;2023-02-23T06:47:28;52820.75;;;-146.77;70.28
55410;BME280;41279;43.546;16.426;2023-02-23T06:49:54;52874.81;;;-146.77;69.16
55410;BME280;41279;43.546;16.426;2023-02-23T06:52:19;52832.75;;;-146.77;68.21
55410;BME280;41279;43.546;16.426;2023-02-23T06:54:44;52854.78;;;-146.77;68.02
55410;BME280;41279;43.546;16.426;2023-02-23T06:57:10;52822.75;;;-146.77;68.70
55410;BME280;41279;43.546;16.426;2023-02-23T06:59:36;52854.78;;;-146.77;67.46
55410;BME280;41279;43.546;16.426;2023-02-23T07:02:05;52846.78;;;-146.77;66.87
55410;BME280;41279;43.546;16.426;2023-02-23T07:04:31;52808.75;;;-146.77;68.04
55410;BME280;41279;43.546;16.426;2023-02-23T07:06:57;52794.72;;;-146.77;68.13
55410;BME280;41279;43.546;16.426;2023-02-23T07:09:23;52802.72;;;-146.77;67.29
55410;BME280;41279;43.546;16.426;2023-02-23T07:11:48;52730.66;;;-146.77;70.29
55410;BME280;41279;43.546;16.426;2023-02-23T07:14:14;52832.75;;;-146.77;70.87
55410;BME280;41279;43.546;16.426;2023-02-23T07:16:39;52812.75;;;-146.77;68.73
55410;BME280;41279;43.546;16.426;2023-02-23T07:19:05;52826.75;;;-146.77;68.57
55410;BME280;41279;43.546;16.426;2023-02-23T07:21:31;52844.78;;;-146.77;67.53
55410;BME280;41279;43.546;16.426;2023-02-23T07:23:58;52838.78;;;-146.77;65.74
55410;BME280;41279;43.546;16.426;2023-02-23T07:26:24;52814.75;;;-146.77;66.12
55410;BME280;41279;43.546;16.426;2023-02-23T07:28:49;52794.72;;;-146.77;65.38
55410;BME280;41279;43.546;16.426;2023-02-23T07:31:15;52678.59;;;-146.77;71.63
55410;BME280;41279;43.546;16.426;2023-02-23T07:33:40;52784.72;;;-146.77;77.10
55410;BME280;41279;43.546;16.426;2023-02-23T07:36:07;52792.72;;;-146.77;69.59
55410;BME280;41279;43.546;16.426;2023-02-23T07:38:33;52718.63;;;-146.77;72.28
55410;BME280;41279;43.546;16.426;2023-02-23T07:40:59;52714.63;;;-146.77;72.06
55410;BME280;41279;43.546;16.426;2023-02-23T07:43:25;52782.72;;;-146.77;68.81
55410;BME280;41279;43.546;16.426;2023-02-23T07:45:50;52842.78;;;-146.77;66.91
55410;BME280;41279;43.546;16.426;2023-02-23T07:48:20;52742.66;;;-146.77;73.09
55410;BME280;41279;43.546;16.426;2023-02-23T07:50:46;52828.75;;;-146.77;73.71
55410;BME280;41279;43.546;16.426;2023-02-23T07:53:12;52868.81;;;-146.77;71.74
55410;BME280;41279;43.546;16.426;2023-02-23T07:55:38;52830.75;;;-146.77;70.51
55410;BME280;41279;43.546;16.426;2023-02-23T07:58:04;52782.72;;;-146.77;69.50
55410;BME280;41279;43.546;16.426;2023-02-23T08:00:31;52838.78;;;-146.77;67.46
55410;BME280;41279;43.546;16.426;2023-02-23T08:02:57;52854.78;;;-146.77;66.26
55410;BME280;41279;43.546;16.426;2023-02-23T08:05:23;52854.78;;;-146.77;65.92
55410;BME280;41279;43.546;16.426;2023-02-23T08:07:50;52898.84;;;-146.77;65.75
55410;BME280;41279;43.546;16.426;2023-02-23T08:10:15;52874.81;;;-146.77;63.76
55410;BME280;41279;43.546;16.426;2023-02-23T08:12:41;52900.84;;;-146.77;62.54
55410;BME280;41279;43.546;16.426;2023-02-23T08:15:08;52858.78;;;-146.77;63.28
55410;BME280;41279;43.546;16.426;2023-02-23T08:17:35;52844.78;;;-146.77;63.83
55410;BME280;41279;43.546;16.426;2023-02-23T08:20:00;52844.78;;;-146.77;63.40
55410;BME280;41279;43.546;16.426;2023-02-23T08:22:26;52854.78;;;-146.77;63.51
55410;BME280;41279;43.546;16.426;2023-02-23T08:24:52;52844.78;;;-146.77;63.47
55410;BME280;41279;43.546;16.426;2023-02-23T08:27:18;52858.78;;;-146.77;63.96
55410;BME280;41279;43.546;16.426;2023-02-23T08:29:44;52880.81;;;-146.77;63.55
55410;BME280;41279;43.546;16.426;2023-02-23T08:32:09;52898.84;;;-146.77;65.38
55410;BME280;41279;43.546;16.426;2023-02-23T08:34:42;52878.81;;;-146.77;64.43
55410;BME280;41279;43.546;16.426;2023-02-23T08:37:09;52850.78;;;-146.77;63.17
55410;BME280;41279;43.546;16.426;2023-02-23T08:39:35;52908.84;;;-146.77;63.24
55410;BME280;41279;43.546;16.426;2023-02-23T08:42:01;52906.84;;;-146.77;64.14
55410;BME280;41279;43.546;16.426;2023-02-23T08:44:27;52894.84;;;-146.77;64.21
55410;BME280;41279;43.546;16.426;2023-02-23T08:46:52;52882.81;;;-146.77;63.61
55410;BME280;41279;43.546;16.426;2023-02-23T08:49:20;52814.75;;;-146.77;64.16
55410;BME280;41279;43.546;16.426;2023-02-23T08:51:46;52862.81;;;-146.77;64.17
55410;BME280;41279;43.546;16.426;2023-02-23T08:54:13;52882.81;;;-146.77;63.29
55410;BME280;41279;43.546;16.426;2023-02-23T08:56:40;52918.88;;;-146.77;62.27
55410;BME280;41279;43.546;16.426;2023-02-23T08:59:07;52914.84;;;-146.77;61.34
55410;BME280;41279;43.546;16.426;2023-02-23T09:01:33;52910.84;;;-146.77;61.63
55410;BME280;41279;43.546;16.426;2023-02-23T09:03:59;52910.84;;;-146.77;61.94
55410;BME280;41279;43.546;16.426;2023-02-23T09:06:25;52918.88;;;-146.77;62.57
55410;BME280;41279;43.546;16.426;2023-02-23T09:08:52;52976.94;;;-146.77;60.87
55410;BME280;41279;43.546;16.426;2023-02-23T09:11:18;52980.94;;;-146.77;59.90
55410;BME280;41279;43.546;16.426;2023-02-23T09:13:44;52936.88;;;-146.77;60.05
55410;BME280;41279;43.546;16.426;2023-02-23T09:16:10;52910.84;;;-146.77;61.78
55410;BME280;41279;43.546;16.426;2023-02-23T09:18:35;52982.94;;;-146.77;62.90
55410;BME280;41279;43.546;16.426;2023-02-23T09:21:06;52964.91;;;-146.77;61.67
55410;BME280;41279;43.546;16.426;2023-02-23T09:23:36;52966.91;;;-146.77;61.59
55410;BME280;41279;43.546;16.426;2023-02-23T09:26:05;52916.84;;;-146.77;61.48
55410;BME280;41279;43.546;16.426;2023-02-23T09:28:32;52920.88;;;-146.77;62.59
55410;BME280;41279;43.546;16.426;2023-02-23T09:31:04;52922.88;;;-146.77;62.46
55410;BME280;41279;43.546;16.426;2023-02-23T09:33:30;53002.97;;;-146.77;60.90
55410;BME280;41279;43.546;16.426;2023-02-23T09:35:56;53012.97;;;-146.77;59.72
55410;BME280;41279;43.546;16.426;2023-02-23T09:38:21;52990.94;;;-146.77;59.32
55410;BME280;41279;43.546;16.426;2023-02-23T09:40:50;52964.91;;;-146.77;60.18
55410;BME280;41279;43.546;16.426;2023-02-23T09:43:47;52748.66;;;-146.77;59.35
55410;BME280;41279;43.546;16.426;2023-02-23T09:46:23;52790.72;;;-146.77;61.34
55410;BME280;41279;43.546;16.426;2023-02-23T09:48:55;52758.69;;;-146.77;64.13
55410;BME280;41279;43.546;16.426;2023-02-23T09:51:23;52762.69;;;-146.77;63.21
55410;BME280;41279;43.546;16.426;2023-02-23T09:53:59;52818.75;;;-146.77;65.23
55410;BME280;41279;43.546;16.426;2023-02-23T09:58:59;52786.72;;;-146.77;66.83
55410;BME280;41279;43.546;16.426;2023-02-23T10:15:47;52792.72;;;-146.77;57.33
55410;BME280;41279;43.546;16.426;2023-02-23T10:18:54;52770.69;;;-146.77;58.71
55410;BME280;41279;43.546;16.426;2023-02-23T10:21:44;52826.75;;;-146.77;55.46
55410;BME280;41279;43.546;16.426;2023-02-23T10:24:27;52946.91;;;-146.77;53.62
55410;BME280;41279;43.546;16.426;2023-02-23T10:27:06;52898.84;;;-146.77;53.50
55410;BME280;41279;43.546;16.426;2023-02-23T10:29:39;52952.91;;;-146.77;53.25
55410;BME280;41279;43.546;16.426;2023-02-23T10:32:16;52854.78;;;-146.77;58.32
55410;BME280;41279;43.546;16.426;2023-02-23T10:34:45;52856.78;;;-146.77;58.16
55410;BME280;41279;43.546;16.426;2023-02-23T10:37:15;52850.78;;;-146.77;60.34
55410;BME280;41279;43.546;16.426;2023-02-23T10:39:41;52910.84;;;-146.77;60.71
55410;BME280;41279;43.546;16.426;2023-02-23T10:42:13;52914.84;;;-146.77;60.65
55410;BME280;41279;43.546;16.426;2023-02-23T10:44:42;52920.88;;;-146.77;59.27
55410;BME280;41279;43.546;16.426;2023-02-23T10:47:13;52916.84;;;-146.77;59.67
55410;BME280;41279;43.546;16.426;2023-02-23T10:49:45;52856.78;;;-146.77;62.08
55410;BME280;41279;43.546;16.426;2023-02-23T10:52:13;52914.84;;;-146.77;60.28
55410;BME280;41279;43.546;16.426;2023-02-23T10:54:46;52860.78;;;-146.77;60.40
55410;BME280;41279;43.546;16.426;2023-02-23T10:57:39;52900.84;;;-146.77;58.84
55410;BME280;41279;43.546;16.426;2023-02-23T11:02:45;52816.75;;;-146.77;61.98
55410;BME280;41279;43.546;16.426;2023-02-23T11:05:35;52770.69;;;-146.77;61.20
55410;BME280;41279;43.546;16.426;2023-02-23T11:08:16;52826.75;;;-146.77;62.93
55410;BME280;41279;43.546;16.426;2023-02-23T11:11:27;52878.81;;;-146.77;60.90
55410;BME280;41279;43.546;16.426;2023-02-23T11:13:54;52846.78;;;-146.77;61.91
55410;BME280;41279;43.546;16.426;2023-02-23T11:16:24;52852.78;;;-146.77;62.19
55410;BME280;41279;43.546;16.426;2023-02-23T11:19:00;52806.75;;;-146.77;61.52
55410;BME280;41279;43.546;16.426;2023-02-23T11:21:31;52844.78;;;-146.77;61.94
55410;BME280;41279;43.546;16.426;2023-02-23T11:26:42;52834.78;;;-146.77;62.01
55410;BME280;41279;43.546;16.426;2023-02-23T11:31:38;52778.72;;;-146.77;62.49
55410;BME280;41279;43.546;16.426;2023-02-23T11:34:05;52778.72;;;-146.77;62.24
55410;BME280;41279;43.546;16.426;2023-02-23T11:36:34;52812.75;;;-146.77;64.69
55410;BME280;41279;43.546;16.426;2023-02-23T11:39:21;52848.78;;;-146.77;63.28
55410;BME280;41279;43.546;16.426;2023-02-23T11:42:27;52818.75;;;-146.77;61.99
55410;BME280;41279;43.546;16.426;2023-02-23T11:45:14;52850.78;;;-146.77;59.94
55410;BME280;41279;43.546;16.426;2023-02-23T11:47:44;52956.91;;;-146.77;57.80
55410;BME280;41279;43.546;16.426;2023-02-23T11:50:33;52978.94;;;-146.77;56.30
55410;BME280;41279;43.546;16.426;2023-02-23T11:53:10;52970.94;;;-146.77;56.95
55410;BME280;41279;43.546;16.426;2023-02-23T11:55:37;52948.91;;;-146.77;57.95
55410;BME280;41279;43.546;16.426;2023-02-23T12:00:36;52894.84;;;-146.77;64.54
55410;BME280;41279;43.546;16.426;2023-02-23T12:03:03;52906.84;;;-146.77;68.50
55410;BME280;41279;43.546;16.426;2023-02-23T12:05:30;52898.84;;;-146.77;71.48
55410;BME280;41279;43.546;16.426;2023-02-23T12:10:37;52914.84;;;-146.77;71.29
55410;BME280;41279;43.546;16.426;2023-02-23T12:16:24;52856.78;;;-146.77;66.79
55410;BME280;41279;43.546;16.426;2023-02-23T12:19:05;52836.78;;;-146.77;65.33
55410;BME280;41279;43.546;16.426;2023-02-23T12:21:40;52818.75;;;-146.77;66.04
55410;BME280;41279;43.546;16.426;2023-02-23T12:26:47;52766.69;;;-146.77;59.99
55410;BME280;41279;43.546;16.426;2023-02-23T12:29:30;52772.69;;;-146.77;59.64
55410;BME280;41279;43.546;16.426;2023-02-23T12:32:08;52780.72;;;-146.77;63.63
55410;BME280;41279;43.546;16.426;2023-02-23T12:37:13;52762.69;;;-146.77;64.09
55410;BME280;41279;43.546;16.426;2023-02-23T12:39:45;52778.72;;;-146.77;63.79
55410;BME280;41279;43.546;16.426;2023-02-23T12:42:25;52750.69;;;-146.77;65.40
55410;BME280;41279;43.546;16.426;2023-02-23T12:44:59;52826.75;;;-146.77;68.52
55410;BME280;41279;43.546;16.426;2023-02-23T12:52:54;52812.75;;;-146.77;69.74
55410;BME280;41279;43.546;16.426;2023-02-23T12:55:49;52814.75;;;-146.77;71.59
55410;BME280;41279;43.546;16.426;2023-02-23T12:58:45;52826.75;;;-146.77;71.67
55410;BME280;41279;43.546;16.426;2023-02-23T13:01:25;52862.81;;;-146.77;73.15
55410;BME280;41279;43.546;16.426;2023-02-23T13:17:04;52956.91;;;-146.77;75.73
55410;BME280;41279;43.546;16.426;2023-02-23T13:19:49;52992.94;;;-146.77;76.51
55410;BME280;41279;43.546;16.426;2023-02-23T13:24:47;53055.03;;;-146.77;79.46
55410;BME280;41279;43.546;16.426;2023-02-23T13:27:17;53071.03;;;-146.77;79.24
55410;BME280;41279;43.546;16.426;2023-02-23T13:29:47;53073.03;;;-146.77;77.33
55410;BME280;41279;43.546;16.426;2023-02-23T13:32:17;53079.06;;;-146.77;79.13
55410;BME280;41279;43.546;16.426;2023-02-23T13:34:57;53079.06;;;-146.77;77.94
55410;BME280;41279;43.546;16.426;2023-02-23T13:37:32;53075.03;;;-146.77;79.36
55410;BME280;41279;43.546;16.426;2023-02-23T13:40:28;53129.09;;;-146.77;79.09
55410;BME280;41279;43.546;16.426;2023-02-23T13:49:07;53169.16;;;-146.77;77.31
55410;BME280;41279;43.546;16.426;2023-02-23T13:51:45;53107.09;;;-146.77;79.23
55410;BME280;41279;43.546;16.426;2023-02-23T13:56:59;53191.19;;;-146.77;78.35
55410;BME280;41279;43.546;16.426;2023-02-23T13:59:35;53181.16;;;-146.77;77.48
55410;BME280;41279;43.546;16.426;2023-02-23T14:02:31;53147.13;;;-146.77;77.49
55410;BME280;41279;43.546;16.426;2023-02-23T14:05:19;53235.25;;;-146.77;77.67
55410;BME280;41279;43.546;16.426;2023-02-23T14:07:51;53247.25;;;-146.77;78.25
55410;BME280;41279;43.546;16.426;2023-02-23T14:10:26;53195.19;;;-146.77;77.40
55410;BME280;41279;43.546;16.426;2023-02-23T14:28:37;53205.19;;;-146.77;73.82
55410;BME280;41279;43.546;16.426;2023-02-23T14:41:39;53213.22;;;-146.77;68.08
55410;BME280;41279;43.546;16.426;2023-02-23T14:44:13;53211.22;;;-146.77;67.79
55410;BME280;41279;43.546;16.426;2023-02-23T14:46:55;53171.16;;;-146.77;69.11
55410;BME280;41279;43.546;16.426;2023-02-23T14:49:24;53175.16;;;-146.77;68.77
55410;BME280;41279;43.546;16.426;2023-02-23T14:51:52;53207.22;;;-146.77;68.73
55410;BME280;41279;43.546;16.426;2023-02-23T14:54:34;53141.13;;;-146.77;68.79
55410;BME280;41279;43.546;16.426;2023-02-23T14:57:03;53167.16;;;-146.77;69.50
55410;BME280;41279;43.546;16.426;2023-02-23T14:59:39;53211.22;;;-146.77;69.39
55410;BME280;41279;43.546;16.426;2023-02-23T15:02:30;53231.22;;;-146.77;69.96
55410;BME280;41279;43.546;16.426;2023-02-23T15:04:55;53167.16;;;-146.77;69.57
55410;BME280;41279;43.546;16.426;2023-02-23T15:09:54;53153.13;;;-146.77;69.21